createdAt,value
2019-02-12T00:00:44.898Z,2.91
2019-02-12T00:01:44.905Z,2.93
2019-02-12T00:02:44.920Z,3.01
2019-02-12T00:03:44.930Z,2.93
2019-02-12T00:04:44.942Z,2.90
2019-02-12T00:05:44.956Z,2.95
2019-02-12T00:06:44.965Z,2.93
2019-02-12T00:07:44.974Z,2.95
2019-02-12T00:08:44.984Z,3.03
2019-02-12T00:09:44.996Z,2.97
2019-02-12T00:10:45.006Z,3.03
2019-02-12T00:11:45.025Z,2.94
2019-02-12T00:12:45.036Z,3.01
2019-02-12T00:13:45.042Z,3.03
2019-02-12T00:14:45.055Z,3.01
2019-02-12T00:15:45.062Z,3.00
2019-02-12T00:16:45.076Z,3.01
2019-02-12T00:17:45.086Z,3.06
2019-02-12T00:18:45.096Z,3.05
2019-02-12T00:19:45.111Z,3.00
2019-02-12T00:20:45.127Z,3.06
2019-02-12T00:21:45.134Z,3.08
2019-02-12T00:22:45.146Z,3.06
2019-02-12T00:23:45.159Z,3.01
2019-02-12T00:24:45.171Z,3.11
2019-02-12T00:25:45.180Z,3.05
2019-02-12T00:26:45.192Z,3.09
2019-02-12T00:27:45.202Z,3.08
2019-02-12T00:28:45.215Z,3.00
2019-02-12T00:29:45.224Z,3.11
2019-02-12T00:30:45.241Z,3.03
2019-02-12T00:31:45.251Z,3.03
2019-02-12T00:32:45.261Z,3.00
2019-02-12T00:33:45.270Z,3.03
2019-02-12T00:34:45.282Z,3.05
2019-02-12T00:35:45.295Z,3.05
2019-02-12T00:36:45.306Z,3.08
2019-02-12T00:37:45.317Z,3.00
2019-02-12T00:38:45.328Z,3.03
2019-02-12T00:39:45.339Z,3.06
2019-02-12T00:40:45.351Z,3.01
2019-02-12T00:41:45.361Z,2.97
2019-02-12T00:42:45.373Z,3.00
2019-02-12T00:43:45.384Z,3.08
2019-02-12T00:44:45.397Z,3.00
2019-02-12T00:45:45.407Z,3.03
2019-02-12T00:46:45.421Z,3.00
2019-02-12T00:47:45.433Z,2.98
2019-02-12T00:48:45.443Z,3.01
2019-02-12T00:49:45.452Z,3.01
2019-02-12T00:50:45.496Z,3.09
2019-02-12T00:51:45.557Z,3.01
2019-02-12T00:52:45.550Z,3.01
2019-02-12T00:53:45.556Z,3.00
2019-02-12T00:54:45.573Z,2.98
2019-02-12T00:55:45.562Z,3.00
2019-02-12T00:56:45.566Z,2.98
2019-02-12T00:57:45.630Z,3.05
2019-02-12T00:58:45.616Z,2.93
2019-02-12T00:59:45.619Z,2.97
2019-02-12T01:00:45.612Z,2.94
2019-02-12T01:01:45.630Z,3.05
2019-02-12T01:02:45.619Z,2.80
2019-02-12T01:03:45.631Z,2.85
2019-02-12T01:04:45.628Z,3.00
2019-02-12T01:05:45.635Z,2.94
2019-02-12T01:06:45.650Z,2.90
2019-02-12T01:07:45.659Z,2.87
2019-02-12T01:08:45.671Z,2.82
2019-02-12T01:09:45.681Z,2.87
2019-02-12T01:10:45.692Z,2.80
2019-02-12T01:11:45.706Z,2.77
2019-02-12T01:12:45.719Z,2.75
2019-02-12T01:13:45.730Z,2.79
2019-02-12T01:14:45.737Z,2.72
2019-02-12T01:15:45.748Z,2.75
2019-02-12T01:16:45.764Z,2.73
2019-02-12T01:17:45.774Z,2.73
2019-02-12T01:18:45.781Z,2.75
2019-02-12T01:19:45.793Z,2.61
2019-02-12T01:20:45.806Z,2.61
2019-02-12T01:21:45.815Z,2.59
2019-02-12T01:22:45.825Z,2.70
2019-02-12T01:23:45.838Z,2.64
2019-02-12T01:24:45.849Z,2.62
2019-02-12T01:25:45.859Z,2.61
2019-02-12T01:26:45.879Z,2.64
2019-02-12T01:27:45.882Z,2.68
2019-02-12T01:28:45.891Z,2.65
2019-02-12T01:29:45.903Z,2.64
2019-02-12T01:30:45.916Z,2.54
2019-02-12T01:31:45.932Z,2.62
2019-02-12T01:32:45.971Z,2.58
2019-02-12T01:33:45.947Z,2.52
2019-02-12T01:34:45.965Z,2.62
2019-02-12T01:35:45.973Z,2.54
2019-02-12T01:36:45.980Z,2.57
2019-02-12T01:37:45.992Z,2.61
2019-02-12T01:38:46.005Z,2.69
2019-02-12T01:39:46.018Z,2.62
2019-02-12T01:40:46.025Z,2.65
2019-02-12T01:41:46.034Z,2.61
2019-02-12T01:42:46.046Z,2.70
2019-02-12T01:43:46.057Z,2.73
2019-02-12T01:44:46.072Z,2.75
2019-02-12T01:45:46.079Z,2.72
2019-02-12T01:46:46.091Z,2.75
2019-02-12T01:47:46.102Z,2.75
2019-02-12T01:48:46.113Z,2.82
2019-02-12T01:49:46.129Z,2.79
2019-02-12T01:50:46.135Z,2.82
2019-02-12T01:51:46.149Z,2.83
2019-02-12T01:52:46.160Z,2.88
2019-02-12T01:53:46.168Z,2.88
2019-02-12T01:54:46.182Z,2.94
2019-02-12T01:55:46.195Z,2.83
2019-02-12T01:56:46.203Z,2.90
2019-02-12T01:57:46.214Z,2.93
2019-02-12T01:58:46.227Z,2.98
2019-02-12T01:59:46.235Z,2.97
2019-02-12T02:00:46.246Z,3.00
2019-02-12T02:01:46.257Z,2.90
2019-02-12T02:02:46.270Z,2.93
2019-02-12T02:03:46.281Z,2.90
2019-02-12T02:04:46.296Z,2.94
2019-02-12T02:05:46.303Z,2.87
2019-02-12T02:06:46.314Z,3.03
2019-02-12T02:07:46.328Z,3.06
2019-02-12T02:08:46.339Z,2.93
2019-02-12T02:09:46.348Z,2.95
2019-02-12T02:10:46.367Z,2.98
2019-02-12T02:11:46.370Z,3.01
2019-02-12T02:12:46.381Z,3.00
2019-02-12T02:13:46.391Z,3.06
2019-02-12T02:14:46.403Z,3.00
2019-02-12T02:15:46.415Z,3.09
2019-02-12T02:16:46.427Z,3.00
2019-02-12T02:17:46.442Z,3.06
2019-02-12T02:18:46.449Z,2.98
2019-02-12T02:19:46.461Z,3.15
2019-02-12T02:20:46.474Z,3.13
2019-02-12T02:21:46.487Z,3.05
2019-02-12T02:22:46.495Z,3.06
2019-02-12T02:23:46.507Z,3.09
2019-02-12T02:24:46.515Z,3.12
2019-02-12T02:25:46.527Z,3.06
2019-02-12T02:26:46.540Z,3.06
2019-02-12T02:27:46.550Z,3.11
2019-02-12T02:28:46.565Z,3.08
2019-02-12T02:29:46.575Z,3.15
2019-02-12T02:30:46.587Z,3.06
2019-02-12T02:31:46.598Z,3.09
2019-02-12T02:32:46.608Z,3.18
2019-02-12T02:33:46.620Z,3.13
2019-02-12T02:34:46.630Z,3.11
2019-02-12T02:35:46.642Z,3.09
2019-02-12T02:36:46.653Z,3.13
2019-02-12T02:37:46.664Z,3.18
2019-02-12T02:38:46.676Z,3.09
2019-02-12T02:39:46.691Z,3.03
2019-02-12T02:40:46.699Z,3.11
2019-02-12T02:41:46.712Z,3.15
2019-02-12T02:42:46.721Z,3.06
2019-02-12T02:43:46.733Z,3.05
2019-02-12T02:44:46.743Z,3.03
2019-02-12T02:45:46.755Z,3.09
2019-02-12T02:46:46.765Z,3.11
2019-02-12T02:47:46.777Z,3.06
2019-02-12T02:48:46.790Z,3.11
2019-02-12T02:49:46.800Z,3.05
2019-02-12T02:50:46.812Z,3.05
2019-02-12T02:51:53.662Z,3.03
2019-02-12T02:52:46.835Z,3.03
2019-02-12T02:53:46.846Z,3.08
2019-02-12T02:54:46.858Z,3.00
2019-02-12T02:55:46.907Z,3.03
2019-02-12T02:56:46.884Z,3.00
2019-02-12T02:57:46.891Z,3.03
2019-02-12T02:58:46.903Z,3.00
2019-02-12T02:59:46.914Z,3.01
2019-02-12T03:00:46.924Z,2.98
2019-02-12T03:01:46.938Z,3.05
2019-02-12T03:02:46.946Z,3.01
2019-02-12T03:03:46.958Z,2.98
2019-02-12T03:04:46.970Z,3.03
2019-02-12T03:05:46.983Z,2.98
2019-02-12T03:06:46.993Z,3.08
2019-02-12T03:07:47.005Z,3.00
2019-02-12T03:08:47.019Z,3.08
2019-02-12T03:09:47.033Z,2.97
2019-02-12T03:10:47.041Z,2.97
2019-02-12T03:11:47.048Z,3.03
2019-02-12T03:12:47.059Z,3.05
2019-02-12T03:13:47.071Z,2.91
2019-02-12T03:14:47.084Z,3.01
2019-02-12T03:15:47.101Z,2.91
2019-02-12T03:16:47.106Z,2.97
2019-02-12T03:17:47.116Z,2.97
2019-02-12T03:18:47.132Z,2.91
2019-02-12T03:19:47.140Z,2.87
2019-02-12T03:20:47.151Z,2.93
2019-02-12T03:21:47.185Z,2.88
2019-02-12T03:22:47.172Z,2.93
2019-02-12T03:23:47.186Z,2.94
2019-02-12T03:24:47.197Z,2.87
2019-02-12T03:25:47.206Z,2.83
2019-02-12T03:26:47.217Z,2.88
2019-02-12T03:27:47.228Z,2.80
2019-02-12T03:28:47.239Z,2.82
2019-02-12T03:29:47.253Z,2.79
2019-02-12T03:30:47.265Z,2.82
2019-02-12T03:31:47.298Z,2.76
2019-02-12T03:32:47.375Z,2.75
2019-02-12T03:33:47.356Z,2.73
2019-02-12T03:34:47.353Z,2.72
2019-02-12T03:35:47.360Z,2.70
2019-02-12T03:36:47.416Z,2.65
2019-02-12T03:37:47.420Z,2.65
2019-02-12T03:38:47.421Z,2.65
2019-02-12T03:39:47.411Z,2.65
2019-02-12T03:40:47.404Z,2.61
2019-02-12T03:41:47.425Z,2.51
2019-02-12T03:42:47.416Z,2.61
2019-02-12T03:43:47.416Z,2.57
2019-02-12T03:44:47.418Z,2.52
2019-02-12T03:45:47.426Z,2.54
2019-02-12T03:46:47.441Z,2.51
2019-02-12T03:47:47.447Z,2.47
2019-02-12T03:48:47.459Z,2.47
2019-02-12T03:49:47.472Z,2.51
2019-02-12T03:50:47.479Z,2.43
2019-02-12T03:51:47.492Z,2.59
2019-02-12T03:52:47.503Z,2.37
2019-02-12T03:53:47.515Z,2.37
2019-02-12T03:54:47.526Z,2.43
2019-02-12T03:55:47.536Z,2.41
2019-02-12T03:56:47.548Z,2.46
2019-02-12T03:57:47.556Z,2.43
2019-02-12T03:58:47.571Z,2.40
2019-02-12T03:59:47.579Z,2.40
2019-02-12T04:00:47.589Z,2.39
2019-02-12T04:01:47.601Z,2.46
2019-02-12T04:02:47.612Z,2.39
2019-02-12T04:03:47.624Z,2.44
2019-02-12T04:04:47.632Z,2.43
2019-02-12T04:05:47.646Z,2.39
2019-02-12T04:06:47.666Z,2.52
2019-02-12T04:07:47.665Z,2.41
2019-02-12T04:08:47.675Z,2.51
2019-02-12T04:09:47.688Z,2.50
2019-02-12T04:10:47.697Z,2.57
2019-02-12T04:11:47.713Z,2.58
2019-02-12T04:12:47.724Z,2.62
2019-02-12T04:13:47.729Z,2.62
2019-02-12T04:14:47.742Z,2.61
2019-02-12T04:15:47.751Z,2.65
2019-02-12T04:16:47.763Z,2.61
2019-02-12T04:17:47.774Z,2.62
2019-02-12T04:18:47.785Z,2.72
2019-02-12T04:19:47.796Z,2.69
2019-02-12T04:20:47.807Z,2.70
2019-02-12T04:21:47.818Z,2.72
2019-02-12T04:22:47.828Z,2.73
2019-02-12T04:23:47.841Z,2.75
2019-02-12T04:24:47.851Z,2.75
2019-02-12T04:25:47.861Z,2.79
2019-02-12T04:26:47.873Z,2.77
2019-02-12T04:27:47.883Z,2.73
2019-02-12T04:28:47.896Z,2.83
2019-02-12T04:29:47.907Z,2.79
2019-02-12T04:30:47.917Z,2.80
2019-02-12T04:31:47.928Z,2.85
2019-02-12T04:32:47.940Z,2.88
2019-02-12T04:33:47.956Z,2.82
2019-02-12T04:34:47.967Z,2.88
2019-02-12T04:35:48.000Z,2.93
2019-02-12T04:36:47.986Z,2.94
2019-02-12T04:37:47.993Z,2.90
2019-02-12T04:38:48.007Z,2.94
2019-02-12T04:39:48.023Z,2.94
2019-02-12T04:40:48.031Z,2.94
2019-02-12T04:41:48.040Z,2.94
2019-02-12T04:42:48.053Z,2.98
2019-02-12T04:43:48.063Z,2.98
2019-02-12T04:44:48.074Z,2.95
2019-02-12T04:45:48.084Z,2.85
2019-02-12T04:46:48.096Z,2.98
2019-02-12T04:47:48.107Z,2.88
2019-02-12T04:48:48.118Z,2.93
2019-02-12T04:49:48.129Z,2.85
2019-02-12T04:50:48.148Z,2.94
2019-02-12T04:51:48.152Z,2.83
2019-02-12T04:52:48.164Z,2.85
2019-02-12T04:53:48.174Z,2.97
2019-02-12T04:54:48.205Z,2.87
2019-02-12T04:55:48.200Z,2.83
2019-02-12T04:56:48.210Z,2.91
2019-02-12T04:57:48.220Z,2.94
2019-02-12T04:58:48.235Z,2.94
2019-02-12T04:59:48.245Z,2.93
2019-02-12T05:00:48.256Z,2.90
2019-02-12T05:01:48.271Z,2.85
2019-02-12T05:02:48.277Z,2.83
2019-02-12T05:03:48.287Z,2.91
2019-02-12T05:04:48.299Z,2.91
2019-02-12T05:05:48.309Z,2.87
2019-02-12T05:06:48.321Z,2.91
2019-02-12T05:07:48.332Z,2.93
2019-02-12T05:08:48.345Z,2.87
2019-02-12T05:09:48.358Z,2.85
2019-02-12T05:10:48.367Z,2.93
2019-02-12T05:11:48.379Z,2.85
2019-02-12T05:12:48.390Z,2.98
2019-02-12T05:13:48.400Z,2.90
2019-02-12T05:14:48.413Z,2.94
2019-02-12T05:15:48.426Z,2.88
2019-02-12T05:16:48.434Z,2.98
2019-02-12T05:17:48.444Z,2.97
2019-02-12T05:18:48.456Z,2.94
2019-02-12T05:19:48.467Z,2.98
2019-02-12T05:20:48.481Z,2.95
2019-02-12T05:21:48.494Z,2.98
2019-02-12T05:22:48.521Z,2.90
2019-02-12T05:23:48.513Z,2.91
2019-02-12T05:24:48.526Z,2.94
2019-02-12T05:25:48.534Z,2.90
2019-02-12T05:26:48.546Z,2.98
2019-02-12T05:27:48.559Z,2.93
2019-02-12T05:28:48.583Z,2.93
2019-02-12T05:29:48.581Z,2.90
2019-02-12T05:30:48.591Z,2.82
2019-02-12T05:31:48.604Z,2.85
2019-02-12T05:32:48.614Z,2.85
2019-02-12T05:33:48.642Z,2.93
2019-02-12T05:34:48.639Z,2.91
2019-02-12T05:35:48.646Z,3.03
2019-02-12T05:36:48.663Z,2.83
2019-02-12T05:37:48.672Z,2.91
2019-02-12T05:38:48.684Z,2.97
2019-02-12T05:39:48.694Z,2.90
2019-02-12T05:40:48.707Z,2.98
2019-02-12T05:41:48.716Z,2.91
2019-02-12T05:42:48.729Z,2.98
2019-02-12T05:43:48.741Z,2.95
2019-02-12T05:44:48.749Z,2.95
2019-02-12T05:45:48.764Z,2.94
2019-02-12T05:46:48.774Z,3.00
2019-02-12T05:47:48.785Z,3.00
2019-02-12T05:48:48.796Z,2.97
2019-02-12T05:49:48.807Z,3.00
2019-02-12T05:50:48.818Z,3.03
2019-02-12T05:51:48.830Z,2.94
2019-02-12T05:52:54.434Z,2.85
2019-02-12T05:53:48.865Z,2.83
2019-02-12T05:54:48.864Z,2.93
2019-02-12T05:55:48.883Z,2.93
2019-02-12T05:56:48.890Z,2.98
2019-02-12T05:57:48.899Z,2.93
2019-02-12T05:58:48.909Z,2.94
2019-02-12T05:59:48.922Z,2.82
2019-02-12T06:00:48.934Z,2.79
2019-02-12T06:01:48.946Z,2.80
2019-02-12T06:02:48.957Z,2.79
2019-02-12T06:03:48.966Z,2.79
2019-02-12T06:04:48.979Z,2.76
2019-02-12T06:05:48.990Z,2.70
2019-02-12T06:06:49.005Z,2.72
2019-02-12T06:07:49.014Z,2.70
2019-02-12T06:08:49.029Z,2.59
2019-02-12T06:09:49.034Z,2.62
2019-02-12T06:10:49.047Z,2.52
2019-02-12T06:11:49.071Z,2.52
2019-02-12T06:12:49.097Z,2.58
2019-02-12T06:13:49.156Z,2.51
2019-02-12T06:14:49.158Z,2.52
2019-02-12T06:15:49.149Z,2.52
2019-02-12T06:16:49.153Z,2.55
2019-02-12T06:17:49.146Z,2.55
2019-02-12T06:18:49.210Z,2.37
2019-02-12T06:19:49.214Z,2.40
2019-02-12T06:20:49.216Z,2.36
2019-02-12T06:21:49.210Z,2.44
2019-02-12T06:22:49.200Z,2.41
2019-02-12T06:23:49.216Z,2.37
2019-02-12T06:24:49.205Z,2.25
2019-02-12T06:25:49.211Z,2.36
2019-02-12T06:26:49.221Z,2.32
2019-02-12T06:27:49.232Z,2.32
2019-02-12T06:28:49.243Z,2.32
2019-02-12T06:29:49.254Z,2.23
2019-02-12T06:30:49.265Z,2.25
2019-02-12T06:31:49.275Z,2.28
2019-02-12T06:32:49.287Z,2.22
2019-02-12T06:33:49.294Z,2.22
2019-02-12T06:34:49.316Z,2.22
2019-02-12T06:35:49.319Z,2.30
2019-02-12T06:36:49.330Z,2.28
2019-02-12T06:37:49.340Z,2.23
2019-02-12T06:38:49.354Z,2.28
2019-02-12T06:39:49.363Z,2.30
2019-02-12T06:40:49.375Z,2.36
2019-02-12T06:41:49.385Z,2.30
2019-02-12T06:42:49.395Z,2.33
2019-02-12T06:43:49.406Z,2.40
2019-02-12T06:44:49.418Z,2.37
2019-02-12T06:45:49.428Z,2.43
2019-02-12T06:46:49.439Z,2.40
2019-02-12T06:47:49.451Z,2.46
2019-02-12T06:48:49.463Z,2.51
2019-02-12T06:49:49.476Z,2.52
2019-02-12T06:50:49.483Z,2.47
2019-02-12T06:51:49.494Z,2.57
2019-02-12T06:52:49.507Z,2.57
2019-02-12T06:53:49.516Z,2.64
2019-02-12T06:54:49.526Z,2.64
2019-02-12T06:55:49.540Z,2.68
2019-02-12T06:56:49.549Z,2.68
2019-02-12T06:57:49.561Z,2.58
2019-02-12T06:58:49.573Z,2.68
2019-02-12T06:59:49.584Z,2.70
2019-02-12T07:00:49.592Z,2.70
2019-02-12T07:01:49.604Z,2.73
2019-02-12T07:02:49.622Z,2.65
2019-02-12T07:03:49.628Z,2.75
2019-02-12T07:04:49.642Z,2.72
2019-02-12T07:05:49.648Z,2.80
2019-02-12T07:06:49.660Z,2.80
2019-02-12T07:07:49.674Z,2.83
2019-02-12T07:08:49.683Z,2.83
2019-02-12T07:09:49.694Z,2.88
2019-02-12T07:10:49.707Z,2.82
2019-02-12T07:11:49.717Z,2.95
2019-02-12T07:12:49.730Z,2.82
2019-02-12T07:13:49.741Z,2.91
2019-02-12T07:14:49.759Z,2.94
2019-02-12T07:15:49.765Z,2.93
2019-02-12T07:16:49.775Z,3.00
2019-02-12T07:17:49.786Z,2.90
2019-02-12T07:18:49.800Z,2.90
2019-02-12T07:19:49.809Z,3.01
2019-02-12T07:20:49.821Z,2.91
2019-02-12T07:21:49.833Z,2.87
2019-02-12T07:22:49.846Z,2.94
2019-02-12T07:23:49.869Z,2.85
2019-02-12T07:24:49.866Z,2.93
2019-02-12T07:25:49.875Z,2.93
2019-02-12T07:26:49.893Z,2.87
2019-02-12T07:27:49.902Z,2.98
2019-02-12T07:28:49.914Z,2.94
2019-02-12T07:29:49.924Z,2.80
2019-02-12T07:30:49.935Z,2.93
2019-02-12T07:31:49.948Z,2.88
2019-02-12T07:32:49.959Z,2.93
2019-02-12T07:33:49.972Z,2.93
2019-02-12T07:34:49.985Z,2.95
2019-02-12T07:35:50.008Z,2.87
2019-02-12T07:36:50.004Z,2.94
2019-02-12T07:37:50.020Z,2.91
2019-02-12T07:38:50.034Z,2.91
2019-02-12T07:39:50.038Z,2.90
2019-02-12T07:40:50.048Z,2.88
2019-02-12T07:41:50.061Z,2.87
2019-02-12T07:42:50.097Z,2.83
2019-02-12T07:43:50.085Z,2.88
2019-02-12T07:44:50.098Z,2.87
2019-02-12T07:45:50.114Z,2.85
2019-02-12T07:46:50.123Z,2.88
2019-02-12T07:47:50.133Z,2.83
2019-02-12T07:48:50.143Z,2.79
2019-02-12T07:49:50.155Z,2.87
2019-02-12T07:50:50.165Z,2.76
2019-02-12T07:51:50.177Z,2.77
2019-02-12T07:52:50.189Z,2.73
2019-02-12T07:53:50.199Z,2.79
2019-02-12T07:54:50.211Z,2.72
2019-02-12T07:55:51.493Z,2.75
2019-02-12T07:56:50.234Z,2.75
2019-02-12T07:57:50.548Z,2.70
2019-02-12T07:58:50.257Z,2.75
2019-02-12T07:59:50.272Z,2.76
2019-02-12T08:00:50.281Z,2.72
2019-02-12T08:01:50.290Z,2.68
2019-02-12T08:02:50.307Z,2.70
2019-02-12T08:03:50.316Z,2.72
2019-02-12T08:04:50.326Z,2.70
2019-02-12T08:05:50.337Z,2.75
2019-02-12T08:06:50.349Z,2.73
2019-02-12T08:07:50.360Z,2.75
2019-02-12T08:08:50.370Z,2.73
2019-02-12T08:09:50.382Z,2.68
2019-02-12T08:10:50.396Z,2.72
2019-02-12T08:11:50.406Z,2.75
2019-02-12T08:12:50.420Z,2.72
2019-02-12T08:13:50.427Z,2.79
2019-02-12T08:14:50.492Z,2.76
2019-02-12T08:15:50.450Z,2.72
2019-02-12T08:16:50.463Z,2.76
2019-02-12T08:17:50.474Z,2.83
2019-02-12T08:18:50.484Z,2.83
2019-02-12T08:19:50.496Z,2.79
2019-02-12T08:20:50.505Z,2.87
2019-02-12T08:21:50.518Z,2.90
2019-02-12T08:22:50.530Z,2.88
2019-02-12T08:23:50.542Z,2.88
2019-02-12T08:24:50.554Z,2.90
2019-02-12T08:25:50.584Z,2.82
2019-02-12T08:26:50.576Z,2.90
2019-02-12T08:27:50.589Z,2.94
2019-02-12T08:28:52.111Z,2.95
2019-02-12T08:29:50.610Z,2.91
2019-02-12T08:30:50.622Z,2.98
2019-02-12T08:31:50.634Z,2.91
2019-02-12T08:32:50.646Z,2.95
2019-02-12T08:33:50.654Z,2.97
2019-02-12T08:34:50.668Z,3.01
2019-02-12T08:35:57.053Z,3.06
2019-02-12T08:36:50.693Z,3.11
2019-02-12T08:37:50.703Z,3.12
2019-02-12T08:38:50.716Z,3.18
2019-02-12T08:39:50.734Z,3.30
2019-02-12T08:40:50.742Z,3.33
2019-02-12T08:41:50.752Z,3.27
2019-02-12T08:42:50.768Z,3.40
2019-02-12T08:43:50.775Z,3.45
2019-02-12T08:44:50.792Z,3.52
2019-02-12T08:45:50.804Z,3.49
2019-02-12T08:46:50.818Z,3.55
2019-02-12T08:47:50.826Z,3.66
2019-02-12T08:48:50.839Z,3.64
2019-02-12T08:49:50.851Z,3.67
2019-02-12T08:50:50.951Z,3.76
2019-02-12T08:51:50.952Z,3.84
2019-02-12T08:52:50.934Z,3.73
2019-02-12T08:53:50.963Z,3.84
2019-02-12T08:54:50.951Z,3.85
2019-02-12T08:55:51.010Z,3.84
2019-02-12T08:56:51.002Z,3.91
2019-02-12T08:57:50.995Z,3.89
2019-02-12T08:58:51.004Z,3.91
2019-02-12T08:59:50.998Z,3.96
2019-02-12T09:00:51.000Z,4.00
2019-02-12T09:01:51.002Z,4.09
2019-02-12T09:02:51.032Z,4.04
2019-02-12T09:03:51.030Z,4.02
2019-02-12T09:04:51.049Z,4.04
2019-02-12T09:05:51.054Z,4.22
2019-02-12T09:06:51.067Z,4.22
2019-02-12T09:07:51.078Z,4.27
2019-02-12T09:08:51.093Z,4.28
2019-02-12T09:09:51.105Z,4.21
2019-02-12T09:10:51.120Z,4.28
2019-02-12T09:11:51.135Z,4.39
2019-02-12T09:12:51.146Z,4.31
2019-02-12T09:13:51.159Z,4.20
2019-02-12T09:14:51.177Z,4.39
2019-02-12T09:15:51.187Z,4.25
2019-02-12T09:16:51.202Z,4.36
2019-02-12T09:17:51.214Z,4.28
2019-02-12T09:18:51.224Z,4.40
2019-02-12T09:19:51.235Z,4.32
2019-02-12T09:20:51.254Z,4.34
2019-02-12T09:21:51.263Z,4.38
2019-02-12T09:22:51.280Z,4.42
2019-02-12T09:23:59.397Z,4.30
2019-02-12T09:24:51.302Z,4.32
2019-02-12T09:25:51.315Z,4.34
2019-02-12T09:26:51.327Z,4.38
2019-02-12T09:27:51.340Z,4.46
2019-02-12T09:28:51.354Z,4.49
2019-02-12T09:29:51.368Z,4.58
2019-02-12T09:30:51.380Z,4.58
2019-02-12T09:31:51.393Z,4.68
2019-02-12T09:32:51.407Z,4.75
2019-02-12T09:33:51.420Z,4.76
2019-02-12T09:34:51.435Z,4.75
2019-02-12T09:35:51.447Z,4.78
2019-02-12T09:36:51.461Z,4.86
2019-02-12T09:37:51.473Z,4.90
2019-02-12T09:38:51.488Z,4.83
2019-02-12T09:39:51.502Z,4.94
2019-02-12T09:40:51.514Z,4.95
2019-02-12T09:41:51.527Z,4.90
2019-02-12T09:42:51.541Z,4.86
2019-02-12T09:43:51.556Z,4.89
2019-02-12T09:44:51.569Z,4.92
2019-02-12T09:45:51.580Z,4.87
2019-02-12T09:46:51.594Z,4.90
2019-02-12T09:47:51.611Z,4.92
2019-02-12T09:48:51.624Z,4.90
2019-02-12T09:49:51.635Z,4.92
2019-02-12T09:50:51.647Z,4.94
2019-02-12T09:51:51.662Z,4.95
2019-02-12T09:52:51.688Z,4.98
2019-02-12T09:53:51.698Z,4.98
2019-02-12T09:54:51.703Z,5.00
2019-02-12T09:55:51.715Z,4.92
2019-02-12T09:56:51.729Z,4.92
2019-02-12T09:57:51.745Z,4.92
2019-02-12T09:58:51.759Z,4.97
2019-02-12T09:59:51.772Z,4.92
2019-02-12T10:00:51.820Z,4.92
2019-02-12T10:01:51.796Z,4.92
2019-02-12T10:02:51.814Z,4.98
2019-02-12T10:03:51.825Z,4.97
2019-02-12T10:04:51.839Z,4.90
2019-02-12T10:05:51.848Z,4.94
2019-02-12T10:06:51.863Z,4.98
2019-02-12T10:07:51.988Z,4.98
2019-02-12T10:08:51.891Z,5.04
2019-02-12T10:09:51.911Z,5.05
2019-02-12T10:10:51.919Z,5.12
2019-02-12T10:11:51.934Z,5.13
2019-02-12T10:12:51.949Z,5.18
2019-02-12T10:13:51.961Z,5.22
2019-02-12T10:14:51.975Z,5.28
2019-02-12T10:15:51.984Z,5.31
2019-02-12T10:16:52.005Z,5.33
2019-02-12T10:17:52.014Z,5.38
2019-02-12T10:18:52.025Z,5.36
2019-02-12T10:19:52.041Z,5.34
2019-02-12T10:20:52.056Z,5.38
2019-02-12T10:21:52.069Z,5.49
2019-02-12T10:22:52.084Z,5.37
2019-02-12T10:23:52.098Z,5.49
2019-02-12T10:24:52.112Z,5.44
2019-02-12T10:25:52.125Z,5.52
2019-02-12T10:26:52.141Z,5.64
2019-02-12T10:27:52.154Z,5.51
2019-02-12T10:28:52.167Z,5.62
2019-02-12T10:29:52.180Z,5.64
2019-02-12T10:30:52.195Z,5.64
2019-02-12T10:31:52.211Z,5.83
2019-02-12T10:32:52.232Z,5.87
2019-02-12T10:33:52.241Z,5.84
2019-02-12T10:34:52.254Z,5.84
2019-02-12T10:35:52.267Z,5.87
2019-02-12T10:36:52.281Z,6.05
2019-02-12T10:37:52.295Z,5.98
2019-02-12T10:38:52.312Z,6.07
2019-02-12T10:39:52.327Z,6.16
2019-02-12T10:40:52.342Z,6.12
2019-02-12T10:41:52.355Z,6.25
2019-02-12T10:42:52.370Z,6.26
2019-02-12T10:43:52.390Z,6.28
2019-02-12T10:44:52.402Z,6.32
2019-02-12T10:45:52.414Z,6.36
2019-02-12T10:46:52.430Z,6.31
2019-02-12T10:47:52.447Z,6.26
2019-02-12T10:48:52.827Z,6.22
2019-02-12T10:49:52.479Z,6.09
2019-02-12T10:50:52.491Z,6.17
2019-02-12T10:51:52.507Z,6.12
2019-02-12T10:52:52.521Z,6.25
2019-02-12T10:53:52.536Z,6.16
2019-02-12T10:54:52.557Z,6.05
2019-02-12T10:55:52.569Z,6.02
2019-02-12T10:56:52.581Z,6.06
2019-02-12T10:57:52.597Z,5.91
2019-02-12T10:58:52.609Z,5.98
2019-02-12T10:59:52.622Z,6.02
2019-02-12T11:00:52.638Z,6.06
2019-02-12T11:01:52.656Z,6.09
2019-02-12T11:02:52.666Z,6.06
2019-02-12T11:03:52.680Z,6.09
2019-02-12T11:04:52.769Z,6.12
2019-02-12T11:05:52.769Z,6.12
2019-02-12T11:06:52.788Z,6.20
2019-02-12T11:07:52.769Z,6.15
2019-02-12T11:08:52.828Z,6.19
2019-02-12T11:09:52.837Z,6.28
2019-02-12T11:10:52.829Z,6.25
2019-02-12T11:11:52.850Z,6.19
2019-02-12T11:12:52.835Z,6.25
2019-02-12T11:13:52.839Z,6.17
2019-02-12T11:14:52.849Z,6.05
2019-02-12T11:15:52.862Z,6.02
2019-02-12T11:16:52.874Z,6.01
2019-02-12T11:17:52.890Z,6.05
2019-02-12T11:18:52.906Z,6.06
2019-02-12T11:19:52.927Z,5.98
2019-02-12T11:20:52.934Z,5.91
2019-02-12T11:21:52.949Z,5.94
2019-02-12T11:22:52.963Z,5.94
2019-02-12T11:23:52.979Z,5.90
2019-02-12T11:24:52.993Z,5.83
2019-02-12T11:25:53.007Z,5.94
2019-02-12T11:26:53.023Z,5.94
2019-02-12T11:27:53.038Z,5.95
2019-02-12T11:28:53.050Z,5.92
2019-02-12T11:29:53.064Z,5.92
2019-02-12T11:30:53.079Z,6.05
2019-02-12T11:31:53.094Z,6.01
2019-02-12T11:32:53.108Z,6.09
2019-02-12T11:33:53.121Z,6.10
2019-02-12T11:34:53.134Z,6.19
2019-02-12T11:35:53.160Z,6.28
2019-02-12T11:36:53.166Z,6.19
2019-02-12T11:37:53.180Z,6.25
2019-02-12T11:38:53.195Z,6.29
2019-02-12T11:39:53.211Z,6.43
2019-02-12T11:40:53.226Z,6.43
2019-02-12T11:41:53.241Z,6.52
2019-02-12T11:42:53.257Z,6.49
2019-02-12T11:43:53.273Z,6.50
2019-02-12T11:44:53.286Z,6.60
2019-02-12T11:45:53.301Z,6.60
2019-02-12T11:46:53.315Z,6.68
2019-02-12T11:47:53.333Z,6.82
2019-02-12T11:48:53.350Z,6.80
2019-02-12T11:49:53.363Z,6.82
2019-02-12T11:50:53.378Z,6.77
2019-02-12T11:51:53.394Z,6.82
2019-02-12T11:52:53.410Z,6.82
2019-02-12T11:53:53.423Z,6.80
2019-02-12T11:54:53.440Z,6.78
2019-02-12T11:55:53.457Z,6.75
2019-02-12T11:56:53.474Z,6.74
2019-02-12T11:57:53.486Z,6.74
2019-02-12T11:58:53.500Z,6.74
2019-02-12T11:59:53.516Z,6.77
2019-02-12T12:00:53.531Z,6.75
2019-02-12T12:01:53.550Z,6.75
2019-02-12T12:02:53.564Z,6.74
2019-02-12T12:03:53.577Z,6.71
2019-02-12T12:04:53.596Z,6.70
2019-02-12T12:05:53.608Z,6.67
2019-02-12T12:06:53.625Z,6.74
2019-02-12T12:07:53.641Z,6.72
2019-02-12T12:08:53.656Z,6.78
2019-02-12T12:09:53.673Z,6.78
2019-02-12T12:10:53.685Z,6.80
2019-02-12T12:11:53.701Z,6.78
2019-02-12T12:12:53.724Z,6.64
2019-02-12T12:13:53.730Z,6.74
2019-02-12T12:14:53.746Z,6.56
2019-02-12T12:15:53.762Z,6.62
2019-02-12T12:16:53.776Z,6.59
2019-02-12T12:17:53.796Z,6.47
2019-02-12T12:18:53.809Z,6.52
2019-02-12T12:19:53.822Z,6.46
2019-02-12T12:20:53.839Z,6.46
2019-02-12T12:21:53.853Z,6.50
2019-02-12T12:22:53.869Z,6.65
2019-02-12T12:23:53.884Z,6.57
2019-02-12T12:24:53.899Z,6.62
2019-02-12T12:25:53.915Z,6.64
2019-02-12T12:26:53.931Z,6.62
2019-02-12T12:27:53.945Z,6.68
2019-02-12T12:28:53.959Z,6.77
2019-02-12T12:29:53.974Z,6.72
2019-02-12T12:30:53.989Z,6.65
2019-02-12T12:31:54.008Z,6.57
2019-02-12T12:32:54.021Z,6.53
2019-02-12T12:33:54.033Z,6.53
2019-02-12T12:34:54.057Z,6.41
2019-02-12T12:35:54.066Z,6.39
2019-02-12T12:36:54.078Z,6.22
2019-02-12T12:37:54.092Z,6.29
2019-02-12T12:38:54.110Z,6.17
2019-02-12T12:39:54.123Z,6.29
2019-02-12T12:40:54.139Z,6.29
2019-02-12T12:41:54.152Z,6.26
2019-02-12T12:42:54.167Z,6.28
2019-02-12T12:43:54.183Z,6.22
2019-02-12T12:44:54.197Z,6.34
2019-02-12T12:45:54.212Z,6.49
2019-02-12T12:46:54.226Z,6.46
2019-02-12T12:47:54.239Z,6.54
2019-02-12T12:48:54.257Z,6.64
2019-02-12T12:49:54.271Z,6.65
2019-02-12T12:50:54.295Z,6.68
2019-02-12T12:51:54.301Z,6.71
2019-02-12T12:52:54.318Z,6.68
2019-02-12T12:53:54.331Z,6.78
2019-02-12T12:54:59.720Z,6.64
2019-02-12T12:55:54.364Z,6.80
2019-02-12T12:56:54.379Z,6.72
2019-02-12T12:57:54.395Z,6.82
2019-02-12T12:58:54.408Z,6.70
2019-02-12T12:59:54.428Z,6.72
2019-02-12T13:00:56.225Z,6.75
2019-02-12T13:01:54.454Z,6.80
2019-02-12T13:02:54.468Z,6.72
2019-02-12T13:03:54.485Z,6.80
2019-02-12T13:04:54.498Z,6.87
2019-02-12T13:05:54.511Z,6.90
2019-02-12T13:06:54.618Z,6.89
2019-02-12T13:07:54.617Z,6.83
2019-02-12T13:08:54.633Z,6.86
2019-02-12T13:09:54.618Z,6.82
2019-02-12T13:10:54.611Z,6.80
2019-02-12T13:11:54.680Z,6.82
2019-02-12T13:12:54.685Z,6.80
2019-02-12T13:13:54.673Z,6.78
2019-02-12T13:14:54.671Z,6.86
2019-02-12T13:15:54.671Z,6.78
2019-02-12T13:16:54.681Z,6.80
2019-02-12T13:17:54.697Z,6.80
2019-02-12T13:18:54.711Z,6.62